• Join FlightAware (Why Join?)
  • Login
  • US Flag 
04:16AM EDT


 

Airport Tracker/Info


-or-


 

Live Flight TrackerFlight Track Log ✈ PDT4155 ✈ 07-Oct-2013 ✈ KBGM - KPHL

Flight Track Log - Related Links

Times and Time Zones

All times are in EDT time to prevent confusion due to time zone crossing. See the PDT4155 flight status page for this flight to view local times or setup timezone preferences in your user account.

Time Position Orientation Groundspeed Altitude Reporting Facility
EDT Latitude Longitude Course Direction KTS MPH feet Rate Location/Type
07:19AM 42.0001 -75.9115 180° South  Level Estimated
07:20AM 41.9288 -75.9177 184° South  Level FlightAware Approximate
07:21AM 41.8595 -75.8942 154° Southeast  Level Estimated
07:22AM 41.7902 -75.8707 160° South  Level Estimated
07:23AM 41.7209 -75.8473 159° South  Level Estimated
07:24AM 41.6504 -75.8322 171° South  Level FlightAware Approximate
07:25AM 41.5811 -75.8085 153° Southeast  Level Estimated
07:26AM 41.5119 -75.7849 161° South  Level Estimated
07:27AM 41.4436 -75.7566 163° South  Level FlightAware Approximate
07:28AM 41.3744 -75.7333 162° South  Level Estimated
07:29AM 41.3066 -75.7030 161° South  Level FlightAware Approximate
07:30AM 41.2389 -75.6728 161° South  Level FlightAware Approximate
07:31AM 41.1711 -75.6426 161° South  Level FlightAware Approximate
07:32AM 41.1016 -75.6207 159° South  Level Estimated
07:33AM 41.0320 -75.5988 163° South  Level Estimated
07:34AM 40.9647 -75.5669 160° South  Level FlightAware Approximate
07:35AM 40.8974 -75.5351 160° South  Level FlightAware Approximate
07:36AM 40.8277 -75.5148 190° South  Level Estimated
07:37AM 40.7562 -75.5116 178° South  Level FlightAware Approximate
07:38AM 40.6848 -75.5083 178° South  Level FlightAware Approximate
07:39AM 40.6155 -75.4853 187° South  Level Estimated
07:40AM 40.5445 -75.4956 186° South  Level FlightAware Approximate
07:41AM 40.4759 -75.4694 190° South  Level Estimated
07:42AM 40.4069 -75.4940 195° South  Level FlightAware Approximate
07:43AM 40.3398 -75.4620 180° South  Level Estimated
07:44AM 40.2726 -75.4300 143° Southeast  Level Estimated
07:45AM 40.2054 -75.3981 143° Southeast  Level Estimated
07:46AM 40.1382 -75.3663 143° Southeast  Level Estimated
07:47AM 40.0710 -75.3345 123° Southeast  Level Estimated
07:48AM 40.0038 -75.3028 90° East  Level Estimated
07:48AM 40.6333 -75.4833 150° Southeast 230 265 7,000  Level Philadelphia TRACON
07:49AM 39.9366 -75.2711 150° Southeast  Level Estimated
07:49AM 40.5833 -75.4833 180° South 232 267 5,900  Level Philadelphia TRACON
07:50AM 39.8722 -75.2409 150° Southeast  Level Estimated
07:50AM 40.5167 -75.4833 180° South 211 243 5,000  Level Philadelphia TRACON
07:51AM 39.8722 -75.2409 150° Southeast  Level Estimated
07:51AM 40.4667 -75.4667 166° South 201 231 5,000  Level Philadelphia TRACON
07:52AM 39.8722 -75.2409 150° Southeast  Level Estimated
07:52AM 40.4167 -75.4667 180° South 200 230 5,000  Level Philadelphia TRACON
07:53AM 39.8722 -75.2409 150° Southeast  Level Estimated
07:53AM 40.3500 -75.4500 169° South 203 234 5,000  Level Philadelphia TRACON
07:54AM 40.3000 -75.4333 166° South 203 234 5,000 -240 Level Philadelphia TRACON
07:55AM 40.2500 -75.4167 166° South 206 237 4,600 -540 Descending Philadelphia TRACON
07:56AM 40.1833 -75.3833 159° South 230 265 4,000 -300 Descending Philadelphia TRACON
07:57AM 40.1333 -75.3500 153° Southeast 210 242 4,000 -120 Level Philadelphia TRACON
07:58AM 40.0667 -75.3333 169° South 207 238 3,800 -600 Descending Philadelphia TRACON
07:59AM 40.0167 -75.3000 153° Southeast 158 182 2,800 -900 Descending Philadelphia TRACON
08:00AM 39.9833 -75.2833 159° South 126 145 2,100 -660 Descending Philadelphia TRACON
08:01AM 39.9667 -75.2667 143° Southeast 109 125 1,500 -600 Descending Philadelphia TRACON
08:02AM 39.9333 -75.2667 180° South 110 127 900 -600 Descending Philadelphia TRACON
08:03AM 39.9000 -75.2500 159° South 113 130 400 -540 Descending Philadelphia TRACON
08:05AM 39.8667 -75.2333 150° Southeast  Level FlightAware Approximate
08:12AM 39.8722 -75.2409 150° Southeast  Level Estimated